createdAt,value
2019-01-04T00:01:43.647Z,1.99
2019-01-04T00:03:54.461Z,2.01
2019-01-04T00:06:05.273Z,1.94
2019-01-04T00:08:16.086Z,1.90
2019-01-04T00:10:26.899Z,1.89
2019-01-04T00:12:37.727Z,1.86
2019-01-04T00:14:48.536Z,1.89
2019-01-04T00:16:59.360Z,1.89
2019-01-04T00:19:10.265Z,1.90
2019-01-04T00:21:21.085Z,1.78
2019-01-04T00:23:31.916Z,1.78
2019-01-04T00:25:42.710Z,1.79
2019-01-04T00:27:53.522Z,1.82
2019-01-04T00:30:45.993Z,1.78
2019-01-04T00:32:56.793Z,1.80
2019-01-04T00:35:07.609Z,1.77
2019-01-04T00:37:18.410Z,1.79
2019-01-04T00:39:29.248Z,1.76
2019-01-04T00:41:40.044Z,1.74
2019-01-04T00:43:50.975Z,1.78
2019-01-04T00:46:01.808Z,1.82
2019-01-04T00:48:12.623Z,1.80
2019-01-04T00:50:23.533Z,1.76
2019-01-04T00:52:34.355Z,1.80
2019-01-04T00:54:45.298Z,1.80
2019-01-04T00:57:35.837Z,1.83
2019-01-04T01:00:26.497Z,1.87
2019-01-04T01:03:17.040Z,1.85
2019-01-04T01:06:07.590Z,1.84
2019-01-04T01:09:00.015Z,1.85
2019-01-04T01:11:52.539Z,1.84
2019-01-04T01:14:43.064Z,1.83
2019-01-04T01:17:33.649Z,1.84
2019-01-04T01:20:26.116Z,1.84
2019-01-04T01:23:16.659Z,1.86
2019-01-04T01:26:07.225Z,1.83
2019-01-04T01:28:59.696Z,1.84
2019-01-04T01:31:50.259Z,1.82
2019-01-04T01:34:42.692Z,1.83
2019-01-04T01:37:33.286Z,1.84
2019-01-04T01:40:23.818Z,1.84
2019-01-04T01:43:14.376Z,1.86
2019-01-04T01:46:04.939Z,1.87
2019-01-04T01:48:15.845Z,1.81
2019-01-04T01:51:06.398Z,1.80
2019-01-04T01:53:17.436Z,1.80
2019-01-04T01:55:28.235Z,1.79
2019-01-04T01:57:39.054Z,1.84
2019-01-04T01:59:49.869Z,1.90
2019-01-04T02:02:00.724Z,1.85
2019-01-04T02:04:11.513Z,1.85
2019-01-04T02:06:22.316Z,1.89
2019-01-04T02:08:33.148Z,1.82
2019-01-04T02:10:43.938Z,1.84
2019-01-04T02:13:14.624Z,1.85
2019-01-04T02:15:25.458Z,1.86
2019-01-04T02:17:36.273Z,1.82
2019-01-04T02:19:47.122Z,1.83
2019-01-04T02:21:57.903Z,1.79
2019-01-04T02:24:08.744Z,1.82
2019-01-04T02:26:19.533Z,1.82
2019-01-04T02:28:30.348Z,1.80
2019-01-04T02:30:41.184Z,1.81
2019-01-04T02:32:52.023Z,1.83
2019-01-04T02:35:44.518Z,1.82
2019-01-04T02:37:55.307Z,1.82
2019-01-04T02:40:06.230Z,1.84
2019-01-04T02:42:17.155Z,1.82
2019-01-04T02:44:27.963Z,1.80
2019-01-04T02:46:38.773Z,1.82
2019-01-04T02:48:49.601Z,1.86
2019-01-04T02:51:00.386Z,1.88
2019-01-04T02:53:11.188Z,1.90
2019-01-04T02:55:21.999Z,1.94
2019-01-04T02:57:32.811Z,1.94
2019-01-04T02:59:43.624Z,1.92
2019-01-04T03:01:54.420Z,1.91
2019-01-04T03:04:05.238Z,1.89
2019-01-04T03:06:16.042Z,1.91
2019-01-04T03:08:26.824Z,1.87
2019-01-04T03:10:37.647Z,1.81
2019-01-04T03:12:48.457Z,1.81
2019-01-04T03:14:59.377Z,1.83
2019-01-04T03:17:10.184Z,1.88
2019-01-04T03:19:21.006Z,1.86
2019-01-04T03:21:31.829Z,1.87
2019-01-04T03:23:42.620Z,1.88
2019-01-04T03:25:53.438Z,1.88
2019-01-04T03:28:04.246Z,1.88
2019-01-04T03:30:15.064Z,1.87
2019-01-04T03:32:26.018Z,1.86
2019-01-04T03:34:36.804Z,1.87
2019-01-04T03:36:47.618Z,1.85
2019-01-04T03:38:58.421Z,1.85
2019-01-04T03:41:09.230Z,1.82
2019-01-04T03:43:20.036Z,1.84
2019-01-04T03:45:30.826Z,1.85
2019-01-04T03:47:41.639Z,1.80
2019-01-04T03:49:52.449Z,1.73
2019-01-04T03:52:03.271Z,1.72
2019-01-04T03:54:14.052Z,1.73
2019-01-04T03:56:24.872Z,1.71
2019-01-04T03:58:35.693Z,1.72
2019-01-04T04:00:46.497Z,1.71
2019-01-04T04:02:57.298Z,1.78
2019-01-04T04:05:08.085Z,1.73
2019-01-04T04:07:18.905Z,1.70
2019-01-04T04:09:29.698Z,1.71
2019-01-04T04:11:40.499Z,1.72
2019-01-04T04:13:51.317Z,1.70
2019-01-04T04:16:02.130Z,1.70
2019-01-04T04:18:12.960Z,1.69
2019-01-04T04:20:23.785Z,1.65
2019-01-04T04:22:34.573Z,1.62
2019-01-04T04:24:45.414Z,1.58
2019-01-04T04:26:56.214Z,1.57
2019-01-04T04:29:07.037Z,1.59
2019-01-04T04:31:17.839Z,1.56
2019-01-04T04:33:28.653Z,1.57
2019-01-04T04:35:39.453Z,1.57
2019-01-04T04:37:50.296Z,1.50
2019-01-04T04:40:01.101Z,1.41
2019-01-04T04:42:12.025Z,1.39
2019-01-04T04:44:22.953Z,1.43
2019-01-04T04:46:33.739Z,1.41
2019-01-04T04:48:44.528Z,1.42
2019-01-04T04:50:55.349Z,1.42
2019-01-04T04:53:06.140Z,1.41
2019-01-04T04:55:16.953Z,1.49
2019-01-04T04:57:27.772Z,1.46
2019-01-04T04:59:38.602Z,1.42
2019-01-04T05:01:49.393Z,1.39
2019-01-04T05:04:00.208Z,1.40
2019-01-04T05:06:11.025Z,1.29
2019-01-04T05:08:21.818Z,1.32
2019-01-04T05:10:32.644Z,1.32
2019-01-04T05:12:43.464Z,1.28
2019-01-04T05:14:54.275Z,1.32
2019-01-04T05:17:05.099Z,1.32
2019-01-04T05:19:15.893Z,1.38
2019-01-04T05:21:26.712Z,1.42
2019-01-04T05:23:37.504Z,1.37
2019-01-04T05:25:48.348Z,1.34
2019-01-04T05:27:59.140Z,1.35
2019-01-04T05:30:09.953Z,1.43
2019-01-04T05:32:20.772Z,1.42
2019-01-04T05:34:31.574Z,1.38
2019-01-04T05:36:42.422Z,1.36
2019-01-04T05:38:53.289Z,1.34
2019-01-04T05:41:04.099Z,1.38
2019-01-04T05:43:14.901Z,1.38
2019-01-04T05:45:25.717Z,1.35
2019-01-04T05:47:36.527Z,1.33
2019-01-04T05:49:47.353Z,1.43
2019-01-04T05:51:58.170Z,1.42
2019-01-04T05:54:08.994Z,1.88
2019-01-04T05:56:19.780Z,1.98
2019-01-04T05:58:30.581Z,1.98
2019-01-04T06:00:41.424Z,1.88
2019-01-04T06:02:52.207Z,1.82
2019-01-04T06:05:44.645Z,1.76
2019-01-04T06:07:55.492Z,1.72
2019-01-04T06:10:06.287Z,1.73
2019-01-04T06:12:17.095Z,1.70
2019-01-04T06:14:27.882Z,1.65
2019-01-04T06:16:38.694Z,1.65
2019-01-04T06:18:49.519Z,1.59
2019-01-04T06:21:00.303Z,1.61
2019-01-04T06:23:11.112Z,1.62
2019-01-04T06:25:21.968Z,1.60
2019-01-04T06:27:32.771Z,1.60
2019-01-04T06:29:43.603Z,1.59
2019-01-04T06:31:54.555Z,1.60
2019-01-04T06:34:05.530Z,1.59
2019-01-04T06:36:16.367Z,1.61
2019-01-04T06:38:27.184Z,1.62
2019-01-04T06:40:37.992Z,1.61
2019-01-04T06:42:48.785Z,1.59
2019-01-04T06:44:59.627Z,1.61
2019-01-04T06:47:52.069Z,1.66
2019-01-04T06:50:44.534Z,1.61
2019-01-04T06:52:55.317Z,1.62
2019-01-04T06:55:45.870Z,1.57
2019-01-04T06:57:56.664Z,1.56
2019-01-04T07:00:49.126Z,1.62
2019-01-04T07:02:59.922Z,1.59
2019-01-04T07:05:10.853Z,1.54
2019-01-04T07:07:21.681Z,1.50
2019-01-04T07:09:32.474Z,1.47
2019-01-04T07:11:43.344Z,1.50
2019-01-04T07:13:54.137Z,1.53
2019-01-04T07:16:04.980Z,1.50
2019-01-04T07:18:15.765Z,1.49
2019-01-04T07:20:26.583Z,1.52
2019-01-04T07:22:37.443Z,1.58
2019-01-04T07:24:48.201Z,1.58
2019-01-04T07:26:59.018Z,1.59
2019-01-04T07:29:09.813Z,1.61
2019-01-04T07:31:20.680Z,1.58
2019-01-04T07:33:31.657Z,1.58
2019-01-04T07:35:42.484Z,1.63
2019-01-04T07:37:53.298Z,1.70
2019-01-04T07:40:45.782Z,1.66
2019-01-04T07:42:56.584Z,1.65
2019-01-04T07:45:49.014Z,1.66
2019-01-04T07:47:59.855Z,1.71
2019-01-04T07:50:10.649Z,1.65
2019-01-04T07:52:21.465Z,1.64
2019-01-04T07:54:32.279Z,1.66
2019-01-04T07:56:43.068Z,1.62
2019-01-04T07:58:53.886Z,1.62
2019-01-04T08:01:04.679Z,1.65
2019-01-04T08:03:15.493Z,1.63
2019-01-04T08:05:26.298Z,1.64
2019-01-04T08:07:37.103Z,1.62
2019-01-04T08:09:47.902Z,1.63
2019-01-04T08:11:58.710Z,1.68
2019-01-04T08:14:09.521Z,1.62
2019-01-04T08:16:20.351Z,1.66
2019-01-04T08:18:31.151Z,1.70
2019-01-04T08:20:41.951Z,1.73
2019-01-04T08:22:52.736Z,1.77
2019-01-04T08:25:25.312Z,1.80
2019-01-04T08:27:36.105Z,1.85
2019-01-04T08:29:46.929Z,1.83
2019-01-04T08:31:57.742Z,1.88
2019-01-04T08:34:08.573Z,1.86
2019-01-04T08:36:19.399Z,1.90
2019-01-04T08:38:30.187Z,1.99
2019-01-04T08:40:41.001Z,2.02
2019-01-04T08:42:51.951Z,2.00
2019-01-04T08:45:44.569Z,1.97
2019-01-04T08:47:55.380Z,2.02
2019-01-04T08:50:47.842Z,1.94
2019-01-04T08:52:58.650Z,1.97
2019-01-04T08:55:09.559Z,2.01
2019-01-04T08:57:20.377Z,2.04
2019-01-04T08:59:31.194Z,2.06
2019-01-04T09:01:42.026Z,2.11
2019-01-04T09:03:52.824Z,2.10
2019-01-04T09:06:03.638Z,2.09
2019-01-04T09:08:14.433Z,2.08
2019-01-04T09:10:25.254Z,2.11
2019-01-04T09:12:36.062Z,2.20
2019-01-04T09:14:46.862Z,2.25
2019-01-04T09:16:57.723Z,2.28
2019-01-04T09:19:08.619Z,2.28
2019-01-04T09:21:19.446Z,2.34
2019-01-04T09:23:30.240Z,2.43
2019-01-04T09:25:48.282Z,2.48
2019-01-04T09:27:59.119Z,2.49
2019-01-04T09:30:31.687Z,2.46
2019-01-04T09:32:42.601Z,2.47
2019-01-04T09:34:53.593Z,2.48
2019-01-04T09:37:04.361Z,2.48
2019-01-04T09:39:15.162Z,2.54
2019-01-04T09:42:07.622Z,2.59
2019-01-04T09:44:18.446Z,2.63
2019-01-04T09:46:29.241Z,2.66
2019-01-04T09:48:40.076Z,2.74
2019-01-04T09:50:50.891Z,2.79
2019-01-04T09:53:01.713Z,2.78
2019-01-04T09:55:12.510Z,2.83
2019-01-04T09:57:23.691Z,2.88
2019-01-04T09:59:36.051Z,2.99
2019-01-04T10:01:46.857Z,2.92
2019-01-04T10:03:57.658Z,2.97
2019-01-04T10:06:08.451Z,2.91
2019-01-04T10:08:19.264Z,2.81
2019-01-04T10:10:30.076Z,2.82
2019-01-04T10:12:40.916Z,2.79
2019-01-04T10:14:51.712Z,2.84
2019-01-04T10:17:02.734Z,2.91
2019-01-04T10:19:13.545Z,2.97
2019-01-04T10:21:24.351Z,3.03
2019-01-04T10:23:35.239Z,3.05
2019-01-04T10:25:46.052Z,3.06
2019-01-04T10:27:56.857Z,3.14
2019-01-04T10:30:49.305Z,3.03
2019-01-04T10:33:00.129Z,2.95
2019-01-04T10:35:11.061Z,2.93
2019-01-04T10:37:21.971Z,2.99
2019-01-04T10:39:32.799Z,3.01
2019-01-04T10:41:43.610Z,3.07
2019-01-04T10:43:54.421Z,3.07
2019-01-04T10:46:05.245Z,3.10
2019-01-04T10:48:16.058Z,3.03
2019-01-04T10:50:26.903Z,3.08
2019-01-04T10:52:37.696Z,3.09
2019-01-04T10:54:48.514Z,3.13
2019-01-04T10:56:59.310Z,3.15
2019-01-04T10:59:10.320Z,3.14
2019-01-04T11:01:21.166Z,3.16
2019-01-04T11:03:31.972Z,3.20
2019-01-04T11:05:42.819Z,3.20
2019-01-04T11:07:53.639Z,3.18
2019-01-04T11:10:24.378Z,3.18
2019-01-04T11:12:35.159Z,3.18
2019-01-04T11:14:45.964Z,3.14
2019-01-04T11:16:58.315Z,3.15
2019-01-04T11:19:09.541Z,3.11
2019-01-04T11:21:20.360Z,3.15
2019-01-04T11:24:10.913Z,3.18
2019-01-04T11:27:03.368Z,3.20
2019-01-04T11:29:55.821Z,3.25
2019-01-04T11:32:46.389Z,3.30
2019-01-04T11:35:38.866Z,3.38
2019-01-04T11:38:29.442Z,3.41
2019-01-04T11:41:21.926Z,3.48
2019-01-04T11:44:14.351Z,3.43
2019-01-04T11:47:06.915Z,3.40
2019-01-04T11:49:59.365Z,3.31
2019-01-04T11:57:21.896Z,3.26
2019-01-04T11:59:32.702Z,3.27
2019-01-04T12:01:43.638Z,3.22
2019-01-04T12:04:36.090Z,3.23
2019-01-04T12:06:46.899Z,3.23
2019-01-04T12:08:57.749Z,3.14
2019-01-04T12:11:08.552Z,3.21
2019-01-04T12:13:19.379Z,3.18
2019-01-04T12:15:30.198Z,3.15
2019-01-04T12:17:41.045Z,3.10
2019-01-04T12:19:51.867Z,3.14
2019-01-04T12:22:02.674Z,3.15
2019-01-04T12:24:13.497Z,3.16
2019-01-04T12:26:24.306Z,3.06
2019-01-04T12:28:35.147Z,2.97
2019-01-04T12:30:45.950Z,2.96
2019-01-04T12:32:56.767Z,2.93
2019-01-04T12:35:07.605Z,3.37
2019-01-04T12:37:18.430Z,4.49
2019-01-04T12:39:29.262Z,5.28
2019-01-04T12:41:40.061Z,5.61
2019-01-04T12:43:50.955Z,5.82
2019-01-04T12:46:01.845Z,5.92
2019-01-04T12:48:12.634Z,5.56
2019-01-04T12:50:23.454Z,4.99
2019-01-04T12:52:34.277Z,4.56
2019-01-04T12:57:03.667Z,3.99
2019-01-04T12:59:14.522Z,3.85
2019-01-04T13:01:25.484Z,3.70
2019-01-04T13:03:36.294Z,3.64
2019-01-04T13:05:47.135Z,3.49
2019-01-04T13:07:57.943Z,3.39
2019-01-04T13:10:08.779Z,3.33
2019-01-04T13:12:19.706Z,3.30
2019-01-04T13:14:30.520Z,3.21
2019-01-04T13:16:41.375Z,3.23
2019-01-04T13:18:52.176Z,3.16
2019-01-04T13:21:03.017Z,3.12
2019-01-04T13:23:13.903Z,3.11
2019-01-04T13:25:24.755Z,3.10
2019-01-04T13:27:35.557Z,3.12
2019-01-04T13:29:46.374Z,3.06
2019-01-04T13:31:57.207Z,3.04
2019-01-04T13:34:08.124Z,3.02
2019-01-04T13:36:18.971Z,3.05
2019-01-04T13:38:29.771Z,3.03
2019-01-04T13:40:40.562Z,3.06
2019-01-04T13:42:51.466Z,3.05
2019-01-04T13:45:43.870Z,3.09
2019-01-04T13:47:54.700Z,3.13
2019-01-04T13:50:47.152Z,3.15
2019-01-04T13:52:57.994Z,3.10
2019-01-04T13:55:08.777Z,3.10
2019-01-04T13:57:19.613Z,3.07
2019-01-04T13:59:30.445Z,3.10
2019-01-04T14:01:41.276Z,3.16
2019-01-04T14:03:52.090Z,3.10
2019-01-04T14:06:03.015Z,2.99
2019-01-04T14:08:13.837Z,2.96
2019-01-04T14:10:24.663Z,2.96
2019-01-04T14:12:35.476Z,3.03
2019-01-04T14:14:46.302Z,2.99
2019-01-04T14:16:57.239Z,2.91
2019-01-04T14:19:08.060Z,2.92
2019-01-04T14:21:18.853Z,2.94
2019-01-04T14:23:29.676Z,2.96
2019-01-04T14:25:40.482Z,2.87
2019-01-04T14:27:51.303Z,2.81
2019-01-04T14:30:43.739Z,2.72
2019-01-04T14:32:54.564Z,2.70
2019-01-04T14:35:47.007Z,2.73
2019-01-04T14:37:57.831Z,2.75
2019-01-04T14:40:50.286Z,2.82
2019-01-04T14:43:01.144Z,2.85
2019-01-04T14:45:12.034Z,2.82
2019-01-04T14:47:22.950Z,2.79
2019-01-04T14:49:33.768Z,2.79
2019-01-04T14:52:04.476Z,2.80
2019-01-04T14:54:15.301Z,2.80
2019-01-04T14:56:26.117Z,2.83
2019-01-04T14:58:36.949Z,2.86
2019-01-04T15:00:47.776Z,2.91
2019-01-04T15:02:58.565Z,2.90
2019-01-04T15:05:09.430Z,2.90
2019-01-04T15:07:20.232Z,2.91
2019-01-04T15:09:31.065Z,2.90
2019-01-04T15:11:41.889Z,2.88
2019-01-04T15:13:52.713Z,2.83
2019-01-04T15:16:03.534Z,2.84
2019-01-04T15:18:14.378Z,2.76
2019-01-04T15:20:25.216Z,2.70
2019-01-04T15:22:36.019Z,2.69
2019-01-04T15:24:46.836Z,2.68
2019-01-04T15:26:57.756Z,2.69
2019-01-04T15:29:08.590Z,2.74
2019-01-04T15:31:19.474Z,2.71
2019-01-04T15:33:30.284Z,2.72
2019-01-04T15:35:41.137Z,2.72
2019-01-04T15:37:51.930Z,2.73
2019-01-04T15:40:44.423Z,2.77
2019-01-04T15:42:55.232Z,2.74
2019-01-04T15:45:47.698Z,2.74
2019-01-04T15:47:58.507Z,2.76
2019-01-04T15:50:09.299Z,2.75
2019-01-04T15:52:20.157Z,2.72
2019-01-04T15:54:30.977Z,2.71
2019-01-04T15:56:41.828Z,2.74
2019-01-04T15:58:52.730Z,2.76
2019-01-04T16:01:03.601Z,2.74
2019-01-04T16:03:14.395Z,2.72
2019-01-04T16:05:25.195Z,2.71
2019-01-04T16:07:36.032Z,2.72
2019-01-04T16:09:46.856Z,2.74
2019-01-04T16:11:57.660Z,2.77
2019-01-04T16:14:08.529Z,2.77
2019-01-04T16:16:19.324Z,2.78
2019-01-04T16:18:30.216Z,2.77
2019-01-04T16:20:41.018Z,2.77
2019-01-04T16:22:51.831Z,2.75
2019-01-04T16:25:44.286Z,2.76
2019-01-04T16:27:55.154Z,2.78
2019-01-04T16:30:47.589Z,2.77
2019-01-04T16:32:58.413Z,2.75
2019-01-04T16:35:09.218Z,2.72
2019-01-04T16:37:20.025Z,2.73
2019-01-04T16:39:30.867Z,2.73
2019-01-04T16:41:41.702Z,2.74
2019-01-04T16:43:52.528Z,2.75
2019-01-04T16:48:35.727Z,2.73
2019-01-04T16:50:46.548Z,2.76
2019-01-04T16:52:59.516Z,2.73
2019-01-04T16:55:10.105Z,2.71
2019-01-04T16:57:20.908Z,2.71
2019-01-04T16:59:31.748Z,2.72
2019-01-04T17:01:42.550Z,2.71
2019-01-04T17:03:53.368Z,2.74
2019-01-04T17:06:24.063Z,2.74
2019-01-04T17:08:34.875Z,2.74
2019-01-04T17:10:45.713Z,2.77
2019-01-04T17:12:56.550Z,2.76
2019-01-04T17:15:07.477Z,2.74
2019-01-04T17:17:18.316Z,2.74
2019-01-04T17:19:29.153Z,2.76
2019-01-04T17:21:39.970Z,2.79
2019-01-04T17:23:50.815Z,2.93
2019-01-04T17:26:01.646Z,3.06
2019-01-04T17:28:12.560Z,3.16
2019-01-04T17:30:23.500Z,3.12
2019-01-04T17:32:34.295Z,3.02
2019-01-04T17:34:45.116Z,3.00
2019-01-04T17:36:55.950Z,2.94
2019-01-04T17:41:59.112Z,2.84
2019-01-04T17:44:09.925Z,2.84
2019-01-04T17:46:20.758Z,2.79
2019-01-04T17:48:31.564Z,2.75
2019-01-04T17:50:42.395Z,2.72
2019-01-04T17:52:53.195Z,2.75
2019-01-04T17:55:45.686Z,2.77
2019-01-04T17:57:56.521Z,2.76
2019-01-04T18:00:49.005Z,2.76
2019-01-04T18:03:00.967Z,2.73
2019-01-04T18:05:12.539Z,2.66
2019-01-04T18:07:23.361Z,2.67
2019-01-04T18:09:34.164Z,2.68
2019-01-04T18:11:44.965Z,2.67
2019-01-04T18:13:55.800Z,2.67
2019-01-04T18:16:06.594Z,2.66
2019-01-04T18:18:17.437Z,2.68
2019-01-04T18:20:28.259Z,2.63
2019-01-04T18:22:39.084Z,2.62
2019-01-04T18:24:49.919Z,2.68
2019-01-04T18:27:00.717Z,2.71
2019-01-04T18:29:31.444Z,2.66
2019-01-04T18:31:42.255Z,2.66
2019-01-04T18:33:53.089Z,2.64
2019-01-04T18:36:03.896Z,2.57
2019-01-04T18:38:14.724Z,2.59
2019-01-04T18:40:25.519Z,2.57
2019-01-04T18:42:36.632Z,2.51
2019-01-04T18:44:47.497Z,2.51
2019-01-04T18:46:58.301Z,2.56
2019-01-04T18:49:09.223Z,2.52
2019-01-04T18:51:20.040Z,2.54
2019-01-04T18:53:30.856Z,2.54
2019-01-04T18:55:41.732Z,2.52
2019-01-04T18:57:52.519Z,2.48
2019-01-04T19:00:44.999Z,2.47
2019-01-04T19:02:55.794Z,2.49
2019-01-04T19:05:06.622Z,2.47
2019-01-04T19:07:17.436Z,2.50
2019-01-04T19:09:28.284Z,2.48
2019-01-04T19:11:39.090Z,2.53
2019-01-04T19:13:49.897Z,2.52
2019-01-04T19:16:00.752Z,2.50
2019-01-04T19:18:11.600Z,2.50
2019-01-04T19:20:22.431Z,2.46
2019-01-04T19:22:33.383Z,2.51
2019-01-04T19:24:44.178Z,2.54
2019-01-04T19:26:55.012Z,2.56
2019-01-04T19:29:05.865Z,2.57
2019-01-04T19:31:16.711Z,2.58
2019-01-04T19:33:27.525Z,2.55
2019-01-04T19:35:38.362Z,2.56
2019-01-04T19:37:49.162Z,2.62
2019-01-04T19:39:59.962Z,2.63
2019-01-04T19:42:10.919Z,2.63
2019-01-04T19:44:21.726Z,2.68
2019-01-04T19:46:32.548Z,2.72
2019-01-04T19:48:43.418Z,2.77
2019-01-04T19:50:54.247Z,2.78
2019-01-04T19:53:05.078Z,2.81
2019-01-04T19:55:15.895Z,2.78
2019-01-04T19:57:47.184Z,2.78
2019-01-04T19:59:58.052Z,2.76
2019-01-04T20:02:08.889Z,2.79
2019-01-04T20:04:19.715Z,2.79
2019-01-04T20:07:12.277Z,2.79
2019-01-04T20:10:04.813Z,2.77
2019-01-04T20:13:15.243Z,2.72
2019-01-04T20:16:07.684Z,2.71
2019-01-04T20:18:38.562Z,2.75
2019-01-04T20:21:09.251Z,2.74
2019-01-04T20:23:39.969Z,2.75
2019-01-04T20:26:10.758Z,2.76
2019-01-04T20:28:41.580Z,2.72
2019-01-04T20:31:12.270Z,2.64
2019-01-04T20:33:42.974Z,2.71
2019-01-04T20:36:13.675Z,2.75
2019-01-04T20:38:44.367Z,2.70
2019-01-04T20:41:15.069Z,2.63
2019-01-04T20:46:07.988Z,2.61
2019-01-04T20:48:38.665Z,2.63
2019-01-04T20:51:09.375Z,2.63
2019-01-04T20:53:40.055Z,2.62
2019-01-04T20:56:10.750Z,2.57
2019-01-04T20:58:41.448Z,2.50
2019-01-04T21:01:13.104Z,2.51
2019-01-04T21:03:43.822Z,2.48
2019-01-04T21:06:14.518Z,2.48
2019-01-04T21:11:17.841Z,2.52
2019-01-04T21:18:39.749Z,2.47
2019-01-04T21:21:10.473Z,2.52
2019-01-04T21:23:41.168Z,2.47
2019-01-04T21:28:44.253Z,2.48
2019-01-04T21:31:14.977Z,2.50
2019-01-04T21:33:45.658Z,2.56
2019-01-04T21:36:16.359Z,2.51
2019-01-04T21:38:47.066Z,2.55
2019-01-04T21:41:17.737Z,2.74
2019-01-04T21:46:29.151Z,2.76
2019-01-04T21:48:59.868Z,2.70
2019-01-04T21:51:30.551Z,2.60
2019-01-04T21:54:01.256Z,2.60
2019-01-04T21:56:31.952Z,2.61
2019-01-04T22:01:24.884Z,2.63
2019-01-04T22:03:55.594Z,2.63
2019-01-04T22:06:26.255Z,2.64
2019-01-04T22:08:56.954Z,2.63
2019-01-04T22:11:27.660Z,2.58
2019-01-04T22:16:20.543Z,2.65
2019-01-04T22:18:51.300Z,2.57
2019-01-04T22:21:21.986Z,2.58
2019-01-04T22:26:11.253Z,2.57
2019-01-04T22:28:41.965Z,2.55
2019-01-04T22:31:12.689Z,2.61
2019-01-04T22:33:43.366Z,2.64
2019-01-04T22:38:36.278Z,2.53
2019-01-04T22:43:46.089Z,2.59
2019-01-04T22:46:16.786Z,2.61
2019-01-04T22:48:47.476Z,2.64
2019-01-04T22:55:55.862Z,2.63
2019-01-04T23:01:20.668Z,2.67
2019-01-04T23:03:51.356Z,2.65
2019-01-04T23:06:22.084Z,2.63
2019-01-04T23:08:52.778Z,2.63
2019-01-04T23:11:23.503Z,2.64
2019-01-04T23:18:48.878Z,2.66
2019-01-04T23:21:59.313Z,2.66
2019-01-04T23:24:29.987Z,2.68
2019-01-04T23:27:00.673Z,2.66
2019-01-04T23:29:31.376Z,2.68
2019-01-04T23:32:02.180Z,2.68
2019-01-04T23:34:32.845Z,2.69
2019-01-04T23:37:25.333Z,2.71
2019-01-04T23:39:56.440Z,2.72
2019-01-04T23:47:24.834Z,2.76
2019-01-04T23:49:55.505Z,2.73
2019-01-04T23:54:58.586Z,2.64
2019-01-04T23:57:29.260Z,2.58
2019-01-04T23:59:59.973Z,2.62
